createdAt,value
2019-04-14T06:43:55.794Z,303.75
2019-04-14T06:44:55.751Z,309.38
2019-04-14T06:45:55.737Z,315.00
2019-04-14T06:46:55.697Z,326.25
2019-04-14T06:47:55.670Z,326.25
2019-04-14T06:48:55.645Z,337.50
2019-04-14T06:49:55.619Z,337.50
2019-04-14T06:50:55.609Z,348.75
2019-04-14T06:51:55.566Z,360.00
2019-04-14T06:52:55.541Z,365.63
2019-04-14T07:02:22.513Z,399.38
2019-04-14T07:03:22.467Z,393.75
2019-04-14T07:04:22.447Z,393.75
2019-04-14T07:05:22.418Z,393.75
2019-04-14T07:06:22.393Z,410.63
2019-04-14T07:07:22.399Z,416.25
2019-04-14T07:08:22.352Z,433.13
2019-04-14T07:09:22.320Z,444.38
2019-04-14T07:10:22.302Z,450.00
2019-04-14T07:15:17.990Z,472.50
2019-04-14T07:16:17.952Z,472.50
2019-04-14T07:17:17.946Z,472.50
2019-04-14T07:18:17.902Z,478.13
2019-04-14T07:19:17.877Z,472.50
2019-04-14T07:20:17.856Z,461.25
2019-04-14T07:25:58.205Z,455.63
2019-04-14T07:26:58.164Z,461.25
2019-04-14T07:27:58.156Z,466.88
2019-04-14T07:28:58.119Z,478.13
2019-04-14T07:29:58.095Z,483.75
2019-04-14T07:30:58.070Z,489.38
2019-04-14T07:36:03.708Z,495.00
2019-04-14T07:37:03.671Z,489.38
2019-04-14T07:38:03.661Z,483.75
2019-04-14T07:39:03.625Z,483.75
2019-04-14T07:40:03.607Z,478.13
2019-04-14T07:45:29.086Z,455.63
2019-04-14T07:46:29.050Z,455.63
2019-04-14T07:47:29.026Z,461.25
2019-04-14T07:48:29.021Z,461.25
2019-04-14T07:49:28.978Z,466.88
2019-04-14T07:53:45.450Z,500.63
2019-04-14T07:54:45.411Z,506.25
2019-04-14T07:55:45.388Z,500.63
2019-04-14T07:56:45.364Z,511.88
2019-04-14T07:57:45.341Z,506.25
2019-04-14T07:58:45.336Z,500.63
2019-04-14T08:03:14.522Z,472.50
2019-04-14T08:04:14.518Z,466.88
2019-04-14T08:05:14.473Z,466.88
2019-04-14T08:06:14.451Z,461.25
2019-04-14T08:11:19.383Z,461.25
2019-04-14T08:12:19.345Z,461.25
2019-04-14T08:13:19.323Z,461.25
2019-04-14T08:14:19.318Z,455.63
2019-04-14T08:19:22.645Z,433.13
2019-04-14T08:20:27.587Z,450.00
2019-04-14T08:21:22.581Z,461.25
2019-04-14T08:22:22.558Z,489.38
2019-04-14T08:23:22.542Z,500.63
2019-04-14T08:24:22.509Z,511.88
2019-04-14T08:25:22.505Z,528.75
2019-04-14T08:26:22.467Z,523.13
2019-04-14T08:30:30.310Z,500.63
2019-04-14T08:31:30.226Z,506.25
2019-04-14T08:32:30.202Z,511.88
2019-04-14T08:33:30.184Z,511.88
2019-04-14T08:34:30.158Z,517.50
2019-04-14T08:35:30.165Z,511.88
2019-04-14T08:39:07.866Z,528.75
2019-04-14T08:40:07.860Z,534.38
2019-04-14T08:41:07.813Z,534.38
2019-04-14T08:42:07.792Z,534.38
2019-04-14T08:43:07.766Z,528.75
2019-04-14T08:44:07.751Z,545.63
2019-04-14T08:45:07.722Z,545.63
2019-04-14T08:46:07.712Z,540.00
2019-04-14T08:50:02.508Z,534.38
2019-04-14T08:51:02.491Z,534.38
2019-04-14T08:52:02.479Z,528.75
2019-04-14T08:53:02.437Z,534.38
2019-04-14T08:54:02.412Z,523.13
2019-04-14T08:58:34.514Z,517.50
2019-04-14T08:59:34.476Z,517.50
2019-04-14T09:00:34.455Z,523.13
2019-04-14T09:01:34.499Z,506.25
2019-04-14T09:05:53.249Z,495.00
2019-04-14T09:06:52.904Z,495.00
2019-04-14T09:07:52.866Z,489.38
2019-04-14T09:08:52.846Z,489.38
2019-04-14T09:13:19.487Z,495.00
2019-04-14T09:14:19.448Z,495.00
2019-04-14T09:15:19.425Z,500.63
2019-04-14T09:16:19.403Z,495.00
2019-04-14T09:20:52.480Z,495.00
2019-04-14T09:21:50.123Z,500.63
2019-04-14T09:22:50.113Z,500.63
2019-04-14T09:23:50.077Z,506.25
2019-04-14T09:28:22.472Z,523.13
2019-04-14T09:29:22.435Z,534.38
2019-04-14T09:30:22.429Z,528.75
2019-04-14T09:31:22.398Z,528.75
2019-04-14T09:36:14.696Z,545.63
2019-04-14T09:37:14.664Z,556.88
2019-04-14T09:38:14.638Z,568.13
2019-04-14T09:39:14.630Z,585.00
2019-04-14T09:40:14.595Z,585.00
2019-04-14T09:44:24.262Z,579.38
2019-04-14T09:45:24.230Z,573.75
2019-04-14T09:46:24.206Z,573.75
2019-04-14T09:47:24.196Z,568.13
2019-04-14T09:48:24.186Z,579.38
2019-04-14T09:51:57.032Z,630.00
2019-04-14T09:52:56.956Z,641.25
2019-04-14T09:53:56.939Z,641.25
2019-04-14T09:54:56.927Z,641.25
2019-04-14T09:55:56.905Z,635.63
2019-04-14T09:56:56.870Z,630.00
2019-04-14T10:00:50.919Z,635.63
2019-04-14T10:01:50.837Z,646.88
2019-04-14T10:02:50.812Z,641.25
2019-04-14T10:03:50.790Z,652.50
2019-04-14T10:04:50.788Z,641.25
2019-04-14T10:05:50.750Z,646.88
2019-04-14T10:09:49.802Z,663.75
2019-04-14T10:10:49.779Z,680.63
2019-04-14T10:11:53.512Z,691.88
2019-04-14T10:12:49.731Z,686.25
2019-04-14T10:13:49.704Z,691.88
2019-04-14T10:14:49.684Z,691.88
2019-04-14T10:15:49.678Z,686.25
2019-04-14T10:19:33.026Z,703.13
2019-04-14T10:20:33.018Z,725.63
2019-04-14T10:21:32.982Z,748.13
2019-04-14T10:22:34.254Z,759.38
2019-04-14T10:23:32.948Z,781.88
2019-04-14T10:24:32.922Z,798.75
2019-04-14T10:25:32.955Z,821.25
2019-04-14T10:26:32.888Z,832.50
2019-04-14T10:27:32.888Z,804.38
2019-04-14T10:28:32.846Z,821.25
2019-04-14T10:29:32.825Z,860.63
2019-04-14T10:30:32.825Z,860.63
2019-04-14T10:31:32.843Z,821.25
2019-04-14T10:32:32.901Z,781.88
2019-04-14T10:33:32.791Z,776.25
2019-04-14T10:34:32.731Z,804.38
2019-04-14T10:35:32.714Z,821.25
2019-04-14T10:36:32.729Z,826.88
2019-04-14T10:37:32.720Z,826.88
2019-04-14T10:38:32.658Z,832.50
2019-04-14T10:39:32.643Z,849.38
2019-04-14T10:40:32.633Z,871.88
2019-04-14T10:41:32.629Z,860.63
2019-04-14T10:42:32.588Z,855.00
2019-04-14T10:43:32.586Z,883.13
2019-04-14T10:44:32.552Z,888.75
2019-04-14T10:45:32.545Z,888.75
2019-04-14T10:46:32.534Z,911.25
2019-04-14T10:47:32.495Z,911.25
2019-04-14T10:48:32.478Z,888.75
2019-04-14T10:49:32.459Z,860.63
2019-04-14T10:50:32.443Z,832.50
2019-04-14T10:51:34.063Z,821.25
2019-04-14T10:52:32.427Z,843.75
2019-04-14T10:53:32.391Z,855.00
2019-04-14T10:54:32.373Z,871.88
2019-04-14T10:55:32.353Z,877.50
2019-04-14T10:56:32.338Z,911.25
2019-04-14T10:57:32.333Z,911.25
2019-04-14T10:58:32.299Z,894.38
2019-04-14T10:59:32.284Z,877.50
2019-04-14T11:00:32.269Z,849.38
2019-04-14T11:01:32.249Z,843.75
2019-04-14T11:02:32.245Z,877.50
2019-04-14T11:03:32.227Z,905.63
2019-04-14T11:04:32.197Z,888.75
2019-04-14T11:05:32.181Z,883.13
2019-04-14T11:06:32.163Z,815.63
2019-04-14T11:07:32.162Z,781.88
2019-04-14T11:08:32.129Z,815.63
2019-04-14T11:09:32.110Z,883.13
2019-04-14T11:10:32.093Z,916.88
2019-04-14T11:11:32.077Z,916.88
2019-04-14T11:12:32.058Z,928.13
2019-04-14T11:13:32.054Z,883.13
2019-04-14T11:14:32.026Z,950.63
2019-04-14T11:15:32.007Z,995.63
2019-04-14T11:16:31.991Z,1035.00
2019-04-14T11:17:31.976Z,1040.63
2019-04-14T11:18:31.971Z,1029.38
2019-04-14T11:19:31.939Z,956.25
2019-04-14T11:20:31.921Z,1029.38
2019-04-14T11:21:41.949Z,995.63
2019-04-14T11:22:31.890Z,939.38
2019-04-14T11:23:31.885Z,894.38
2019-04-14T11:24:31.855Z,900.00
2019-04-14T11:25:31.838Z,933.75
2019-04-14T11:26:31.821Z,939.38
2019-04-14T11:27:31.802Z,928.13
2019-04-14T11:28:31.802Z,967.50
2019-04-14T11:29:31.772Z,984.38
2019-04-14T11:30:31.756Z,1006.88
2019-04-14T11:31:31.735Z,973.13
2019-04-14T11:32:31.720Z,945.00
2019-04-14T11:33:31.718Z,928.13
2019-04-14T11:34:31.689Z,922.50
2019-04-14T11:35:31.671Z,888.75
2019-04-14T11:36:31.659Z,871.88
2019-04-14T11:37:31.637Z,866.25
2019-04-14T11:38:31.643Z,843.75
2019-04-14T11:39:31.602Z,866.25
2019-04-14T11:40:34.439Z,894.38
2019-04-14T11:41:31.571Z,990.00
2019-04-14T11:42:31.555Z,961.88
2019-04-14T11:43:31.555Z,1001.25
2019-04-14T11:44:31.521Z,961.88
2019-04-14T11:45:31.504Z,1023.75
2019-04-14T11:46:31.487Z,928.13
2019-04-14T11:47:31.473Z,900.00
2019-04-14T11:48:31.456Z,950.63
2019-04-14T11:49:31.459Z,883.13
2019-04-14T11:50:31.420Z,860.63
2019-04-14T11:51:31.406Z,826.88
2019-04-14T11:52:31.389Z,821.25
2019-04-14T11:53:31.370Z,826.88
2019-04-14T11:54:31.369Z,826.88
2019-04-14T11:55:31.340Z,815.63
2019-04-14T11:56:31.332Z,928.13
2019-04-14T11:57:31.306Z,956.25
2019-04-14T11:58:31.289Z,978.75
2019-04-14T11:59:31.284Z,990.00
2019-04-14T12:00:31.255Z,956.25
2019-04-14T12:01:31.237Z,916.88
2019-04-14T12:02:31.223Z,855.00
2019-04-14T12:03:32.516Z,916.88
2019-04-14T12:04:31.207Z,945.00
2019-04-14T12:05:31.176Z,950.63
2019-04-14T12:06:31.152Z,916.88
2019-04-14T12:07:31.134Z,933.75
2019-04-14T12:08:31.127Z,967.50
2019-04-14T12:09:31.140Z,1074.38
2019-04-14T12:10:31.087Z,1012.50
2019-04-14T12:11:31.113Z,995.63
2019-04-14T12:12:31.057Z,995.63
2019-04-14T12:13:31.042Z,1023.75
2019-04-14T12:14:31.025Z,1046.25
2019-04-14T12:15:31.030Z,1057.50
2019-04-14T12:16:30.991Z,1006.88
2019-04-14T12:17:30.972Z,995.63
2019-04-14T12:18:30.963Z,950.63
2019-04-14T12:19:30.941Z,978.75
2019-04-14T12:20:30.962Z,1051.88
2019-04-14T12:21:30.913Z,1091.25
2019-04-14T12:22:30.888Z,1057.50
2019-04-14T12:23:30.877Z,1046.25
2019-04-14T12:24:30.885Z,1001.25
2019-04-14T12:25:30.845Z,1001.25
2019-04-14T12:26:30.835Z,990.00
2019-04-14T12:27:30.809Z,995.63
2019-04-14T12:28:31.759Z,961.88
2019-04-14T12:29:30.782Z,1119.38
2019-04-14T12:30:31.297Z,1181.25
2019-04-14T12:31:30.991Z,1175.63
2019-04-14T12:32:30.731Z,1220.63
2019-04-14T12:33:30.712Z,1192.50
2019-04-14T12:34:30.695Z,1237.50
2019-04-14T12:35:30.722Z,1310.63
2019-04-14T12:36:30.670Z,1321.88
2019-04-14T12:37:30.647Z,1338.75
2019-04-14T12:38:30.635Z,1350.00
2019-04-14T12:39:30.621Z,1344.38
2019-04-14T12:40:30.644Z,1338.75
2019-04-14T12:41:31.071Z,1333.13
2019-04-14T12:42:30.569Z,1327.50
2019-04-14T12:43:30.552Z,1080.00
2019-04-14T12:44:30.542Z,967.50
2019-04-14T12:45:30.527Z,961.88
2019-04-14T12:46:30.527Z,984.38
2019-04-14T12:47:30.504Z,967.50
2019-04-14T12:48:30.485Z,1012.50
2019-04-14T12:49:30.465Z,2064.38
2019-04-14T12:50:30.446Z,2075.63
2019-04-14T12:51:31.191Z,2137.50
2019-04-14T12:52:30.423Z,2356.88
2019-04-14T12:53:30.404Z,1035.00
2019-04-14T12:54:30.387Z,1023.75
2019-04-14T12:55:30.370Z,1091.25
2019-04-14T12:56:30.377Z,3251.25
2019-04-14T12:57:30.341Z,1175.63
2019-04-14T12:58:30.328Z,1080.00
2019-04-14T12:59:30.309Z,1051.88
2019-04-14T13:00:30.294Z,1113.75
2019-04-14T13:01:30.279Z,1181.25
2019-04-14T13:02:30.276Z,1254.38
2019-04-14T13:03:30.270Z,3763.13
2019-04-14T13:04:30.245Z,3577.50
2019-04-14T13:05:30.230Z,3352.50
2019-04-14T13:06:30.225Z,3206.25
2019-04-14T13:07:30.213Z,3425.63
2019-04-14T13:08:30.183Z,3346.88
2019-04-14T13:09:30.175Z,3436.88
2019-04-14T13:10:30.151Z,3234.38
2019-04-14T13:11:30.132Z,3515.63
2019-04-14T13:12:30.132Z,3594.38
2019-04-14T13:13:30.099Z,3532.50
2019-04-14T13:14:30.097Z,3346.88
2019-04-14T13:15:30.081Z,3403.13
2019-04-14T13:16:30.060Z,3628.13
2019-04-14T13:17:30.061Z,3729.38
2019-04-14T13:18:30.031Z,3386.25
2019-04-14T13:19:30.017Z,1890.00
2019-04-14T13:20:30.002Z,1130.63
2019-04-14T13:21:29.989Z,1119.38
2019-04-14T13:22:34.009Z,3442.50
2019-04-14T13:23:29.963Z,3195.00
2019-04-14T13:24:29.953Z,3228.75
2019-04-14T13:25:29.936Z,3465.00
2019-04-14T13:26:29.932Z,3380.63
2019-04-14T13:27:29.908Z,3358.13
2019-04-14T13:28:29.911Z,3751.88
2019-04-14T13:29:29.882Z,3847.50
2019-04-14T13:30:29.876Z,3015.00
2019-04-14T13:31:29.855Z,1670.63
2019-04-14T13:32:35.965Z,3318.75
2019-04-14T13:33:29.844Z,2345.63
2019-04-14T13:34:29.818Z,3453.75
2019-04-14T13:35:29.803Z,2109.38
2019-04-14T13:36:29.788Z,3436.88
2019-04-14T13:37:29.780Z,3178.13
2019-04-14T13:38:29.778Z,1462.50
2019-04-14T13:39:29.754Z,1119.38
2019-04-14T13:40:29.745Z,1063.13
2019-04-14T13:41:29.727Z,1051.88
2019-04-14T13:42:29.731Z,1164.38
2019-04-14T13:43:29.720Z,1231.88
2019-04-14T13:44:29.687Z,1299.38
2019-04-14T13:45:29.677Z,1456.88
2019-04-14T13:46:29.664Z,3577.50
2019-04-14T13:47:29.647Z,2002.50
2019-04-14T13:48:29.632Z,1057.50
2019-04-14T13:49:29.634Z,995.63
2019-04-14T13:50:29.608Z,990.00
2019-04-14T13:51:29.591Z,1012.50
2019-04-14T13:52:31.128Z,973.13
2019-04-14T13:53:29.565Z,950.63
2019-04-14T13:54:29.565Z,956.25
2019-04-14T13:55:29.538Z,1006.88
2019-04-14T13:56:29.524Z,1203.75
2019-04-14T13:57:29.508Z,2936.25
2019-04-14T13:58:29.496Z,3735.00
2019-04-14T13:59:29.497Z,1293.75
2019-04-14T14:00:29.467Z,1260.00
2019-04-14T14:01:29.454Z,1631.25
2019-04-14T14:02:29.438Z,3048.75
2019-04-14T14:03:29.424Z,2936.25
2019-04-14T14:04:29.426Z,1783.13
2019-04-14T14:05:29.396Z,1158.75
2019-04-14T14:06:29.382Z,973.13
2019-04-14T14:07:29.366Z,900.00
2019-04-14T14:08:29.352Z,843.75
2019-04-14T14:09:29.354Z,815.63
2019-04-14T14:10:29.327Z,815.63
2019-04-14T14:11:32.220Z,826.88
2019-04-14T14:12:29.295Z,843.75
2019-04-14T14:13:29.284Z,883.13
2019-04-14T14:14:29.283Z,961.88
2019-04-14T14:15:29.255Z,1237.50
2019-04-14T14:16:29.240Z,1800.00
2019-04-14T14:17:29.227Z,1226.25
2019-04-14T14:18:29.213Z,2323.13
2019-04-14T14:19:29.212Z,2306.25
2019-04-14T14:20:29.184Z,2334.38
2019-04-14T14:21:29.172Z,2407.50
2019-04-14T14:22:29.153Z,2486.25
2019-04-14T14:23:29.138Z,2598.75
2019-04-14T14:24:29.143Z,2171.25
2019-04-14T14:25:29.113Z,2491.88
2019-04-14T14:26:29.097Z,1575.00
2019-04-14T14:27:29.125Z,1417.50
2019-04-14T14:28:29.074Z,1485.00
2019-04-14T14:29:29.071Z,1350.00
2019-04-14T14:30:29.067Z,1558.13
2019-04-14T14:31:29.035Z,1760.63
2019-04-14T14:32:29.023Z,2536.88
2019-04-14T14:33:29.010Z,1771.88
2019-04-14T14:34:28.995Z,3386.25
2019-04-14T14:35:29.001Z,2739.38
2019-04-14T14:36:28.969Z,1361.25
2019-04-14T14:37:28.957Z,905.63
2019-04-14T14:38:28.947Z,939.38
2019-04-14T14:39:28.936Z,843.75
2019-04-14T14:40:28.932Z,849.38
2019-04-14T14:41:28.906Z,900.00
2019-04-14T14:42:28.898Z,945.00
2019-04-14T14:43:28.880Z,1001.25
2019-04-14T14:44:28.871Z,1051.88
2019-04-14T14:45:28.872Z,1108.13
2019-04-14T14:46:28.841Z,1181.25
2019-04-14T14:47:28.838Z,2739.38
2019-04-14T14:48:28.814Z,3155.63
2019-04-14T14:49:28.799Z,2812.50
2019-04-14T14:50:28.809Z,2761.88
2019-04-14T14:51:28.795Z,2795.63
2019-04-14T14:52:28.757Z,2430.00
2019-04-14T14:53:28.749Z,2615.63
2019-04-14T14:54:28.737Z,2750.63
2019-04-14T14:55:28.720Z,2317.50
2019-04-14T14:56:28.724Z,3003.75
2019-04-14T14:57:28.698Z,2660.63
2019-04-14T14:58:28.681Z,933.75
2019-04-14T14:59:28.672Z,916.88
2019-04-14T15:00:28.706Z,905.63
2019-04-14T15:01:28.663Z,922.50
2019-04-14T15:02:28.639Z,905.63
2019-04-14T15:03:28.623Z,911.25
2019-04-14T15:04:28.610Z,933.75
2019-04-14T15:05:28.598Z,995.63
2019-04-14T15:06:28.680Z,1057.50
2019-04-14T15:07:28.586Z,1451.25
2019-04-14T15:08:28.563Z,2418.75
2019-04-14T15:09:28.547Z,2086.88
2019-04-14T15:10:28.543Z,2289.38
2019-04-14T15:11:28.534Z,2632.50
2019-04-14T15:12:28.510Z,2913.75
2019-04-14T15:13:28.497Z,2880.00
2019-04-14T15:14:28.503Z,2705.63
2019-04-14T15:15:28.473Z,2643.75
2019-04-14T15:16:28.492Z,2643.75
2019-04-14T15:17:28.442Z,2413.13
2019-04-14T15:18:28.436Z,1175.63
2019-04-14T15:19:28.418Z,1878.75
2019-04-14T15:20:28.419Z,1563.75
2019-04-14T15:21:28.397Z,894.38
2019-04-14T15:22:28.425Z,900.00
2019-04-14T15:23:28.373Z,995.63
2019-04-14T15:24:28.362Z,877.50
2019-04-14T15:25:28.349Z,888.75
2019-04-14T15:26:28.340Z,1125.00
2019-04-14T15:27:28.348Z,1462.50
2019-04-14T15:28:28.312Z,1738.13
2019-04-14T15:29:28.304Z,1996.88
2019-04-14T15:30:28.288Z,1636.88
2019-04-14T15:31:28.275Z,855.00
2019-04-14T15:32:28.278Z,860.63
2019-04-14T15:33:28.252Z,2593.13
2019-04-14T15:34:28.239Z,2548.13
2019-04-14T15:35:28.222Z,2334.38
2019-04-14T15:36:28.248Z,2345.63
2019-04-14T15:37:28.193Z,2475.00
2019-04-14T15:38:28.187Z,2446.88
2019-04-14T15:39:28.168Z,2396.25
2019-04-14T15:40:28.158Z,2278.13
2019-04-14T15:41:28.144Z,2261.25
2019-04-14T15:42:28.146Z,2283.75
2019-04-14T15:43:28.124Z,2283.75
2019-04-14T15:44:28.113Z,2328.75
2019-04-14T15:45:28.096Z,2120.63
2019-04-14T15:46:28.093Z,1530.00
2019-04-14T15:47:28.086Z,1040.63
2019-04-14T15:48:28.074Z,939.38
2019-04-14T15:49:28.051Z,916.88
2019-04-14T15:50:28.039Z,1265.63
2019-04-14T15:51:28.029Z,1839.38
2019-04-14T15:52:28.036Z,2103.75
2019-04-14T15:53:37.785Z,2058.75
2019-04-14T15:54:27.993Z,1923.75
2019-04-14T15:55:27.979Z,1946.25
2019-04-14T15:56:27.979Z,1901.25
2019-04-14T15:57:27.979Z,1867.50
2019-04-14T15:58:27.962Z,1901.25
2019-04-14T15:59:29.508Z,1895.63
2019-04-14T16:00:27.922Z,1873.13
2019-04-14T16:01:27.908Z,1923.75
2019-04-14T16:02:27.897Z,1631.25
2019-04-14T16:03:27.898Z,1546.88
2019-04-14T16:04:27.872Z,1732.50
2019-04-14T16:05:27.864Z,1743.75
2019-04-14T16:06:27.851Z,1783.13
2019-04-14T16:07:27.838Z,1822.50
2019-04-14T16:08:27.844Z,1839.38
2019-04-14T16:09:27.817Z,1771.88
2019-04-14T16:10:27.805Z,1653.75
2019-04-14T16:11:27.792Z,1659.38
2019-04-14T16:12:27.785Z,1749.38
2019-04-14T16:13:27.772Z,1766.25
2019-04-14T16:14:27.773Z,1670.63
2019-04-14T16:15:27.750Z,1631.25
2019-04-14T16:16:27.741Z,1625.63
2019-04-14T16:17:27.730Z,1569.38
2019-04-14T16:18:27.731Z,1462.50
2019-04-14T16:19:27.738Z,1473.75
2019-04-14T16:20:27.700Z,1563.75
2019-04-14T16:21:27.698Z,1535.63
2019-04-14T16:22:27.678Z,1451.25
2019-04-14T16:23:27.668Z,1406.25
2019-04-14T16:24:27.659Z,1428.75
2019-04-14T16:25:27.663Z,1451.25
2019-04-14T16:26:27.648Z,1462.50
2019-04-14T16:27:27.628Z,1406.25
2019-04-14T16:28:27.616Z,1164.38
2019-04-14T16:29:27.606Z,950.63
2019-04-14T16:30:27.610Z,1203.75
2019-04-14T16:31:27.589Z,1220.63
2019-04-14T16:32:27.574Z,1327.50
2019-04-14T16:33:27.567Z,1293.75
2019-04-14T16:34:27.555Z,1254.38
2019-04-14T16:35:27.556Z,1226.25
2019-04-14T16:36:27.530Z,1237.50
2019-04-14T16:37:27.526Z,1260.00
2019-04-14T16:38:27.510Z,1282.50
2019-04-14T16:39:27.498Z,1271.25
2019-04-14T16:40:27.499Z,1231.88
2019-04-14T16:41:27.479Z,1186.88
2019-04-14T16:42:27.464Z,1175.63
2019-04-14T16:43:27.453Z,1181.25
2019-04-14T16:44:27.439Z,1153.13
2019-04-14T16:45:27.452Z,1119.38
2019-04-14T16:46:27.421Z,1130.63
2019-04-14T16:47:27.406Z,1102.50
2019-04-14T16:48:27.394Z,1051.88
2019-04-14T16:49:27.385Z,995.63
2019-04-14T16:50:27.374Z,956.25
2019-04-14T16:51:27.386Z,939.38
2019-04-14T16:52:27.351Z,984.38
2019-04-14T16:53:27.350Z,1006.88
2019-04-14T16:54:27.328Z,995.63
2019-04-14T16:55:29.680Z,967.50
2019-04-14T16:56:27.305Z,950.63
2019-04-14T16:57:28.978Z,945.00
2019-04-14T16:58:27.283Z,916.88
2019-04-14T16:59:27.268Z,905.63
2019-04-14T17:00:27.258Z,911.25
2019-04-14T17:01:27.340Z,905.63
2019-04-14T17:02:27.235Z,883.13
2019-04-14T17:03:27.222Z,843.75
2019-04-14T17:04:27.212Z,708.75
2019-04-14T17:05:27.236Z,540.00
2019-04-14T17:06:27.186Z,444.38
2019-04-14T17:07:27.169Z,421.88
2019-04-14T17:08:27.156Z,405.00
2019-04-14T17:09:27.142Z,399.38
2019-04-14T17:10:27.130Z,393.75
2019-04-14T17:11:27.129Z,388.13
2019-04-14T17:12:27.097Z,388.13
2019-04-14T17:13:27.091Z,376.88
2019-04-14T17:14:27.069Z,365.63
2019-04-14T17:15:27.056Z,360.00
2019-04-14T17:16:27.059Z,354.38
2019-04-14T17:17:27.023Z,348.75
2019-04-14T17:18:27.048Z,348.75
2019-04-14T17:19:26.994Z,348.75
2019-04-14T17:20:26.976Z,343.13
2019-04-14T17:21:26.977Z,343.13
2019-04-14T17:22:26.949Z,337.50
2019-04-14T17:23:26.929Z,326.25
2019-04-14T17:24:26.911Z,326.25
2019-04-14T17:25:26.917Z,320.63
2019-04-14T17:26:26.882Z,309.38
2019-04-14T17:27:26.873Z,303.75
2019-04-14T17:28:26.846Z,298.13
2019-04-14T17:29:26.830Z,309.38
2019-04-14T17:30:26.812Z,303.75
2019-04-14T17:31:26.795Z,292.50
2019-04-14T17:32:26.791Z,286.88
2019-04-14T17:33:26.763Z,275.63
2019-04-14T17:34:26.743Z,270.00
2019-04-14T17:35:26.725Z,264.38
2019-04-14T17:36:26.706Z,264.38
2019-04-14T17:37:26.707Z,247.50
2019-04-14T17:38:26.673Z,230.63
2019-04-14T17:39:26.653Z,213.75
2019-04-14T17:40:26.638Z,202.50
2019-04-14T17:41:26.625Z,191.25
2019-04-14T17:42:26.631Z,185.63
2019-04-14T17:43:26.583Z,185.63
2019-04-14T17:44:26.566Z,180.00
2019-04-14T17:45:26.547Z,174.38
2019-04-14T17:46:26.531Z,168.75
2019-04-14T17:47:26.510Z,163.13
2019-04-14T17:48:26.508Z,157.50
2019-04-14T17:49:26.479Z,151.88
2019-04-14T17:50:26.520Z,146.25
2019-04-14T17:51:26.436Z,140.63
2019-04-14T17:52:26.417Z,135.00
2019-04-14T17:53:26.414Z,129.38
2019-04-14T17:54:29.480Z,123.75
2019-04-14T17:55:26.384Z,118.13
2019-04-14T17:56:26.344Z,112.50
2019-04-14T17:57:26.362Z,106.88
2019-04-14T17:58:26.309Z,106.88
2019-04-14T17:59:26.288Z,101.25
2019-04-14T18:00:26.272Z,95.63
2019-04-14T18:01:26.253Z,90.00
2019-04-14T18:02:26.232Z,84.38
2019-04-14T18:03:26.224Z,78.75
2019-04-14T18:04:26.193Z,78.75
2019-04-14T18:05:26.198Z,73.13
2019-04-14T18:06:26.152Z,73.13
2019-04-14T18:07:26.133Z,67.50
2019-04-14T18:08:26.132Z,61.88
2019-04-14T18:09:28.608Z,61.88
2019-04-14T18:10:26.078Z,56.25
2019-04-14T18:11:26.057Z,50.63
2019-04-14T18:12:26.044Z,45.00
2019-04-14T18:13:26.072Z,39.38
2019-04-14T18:14:26.012Z,39.38
2019-04-14T18:15:25.986Z,33.75
2019-04-14T18:16:25.961Z,33.75
2019-04-14T18:17:25.940Z,28.13
2019-04-14T18:18:25.920Z,28.13
2019-04-14T18:19:25.914Z,22.50
2019-04-14T18:20:25.884Z,22.50
2019-04-14T18:21:25.911Z,16.88
2019-04-14T18:22:25.843Z,16.88
2019-04-14T18:23:25.822Z,16.88
2019-04-14T18:24:25.815Z,16.88
2019-04-14T18:25:25.782Z,11.25
2019-04-14T18:26:25.763Z,11.25
2019-04-14T18:27:25.741Z,11.25
2019-04-14T18:28:25.728Z,11.25
2019-04-14T18:29:25.717Z,5.63
2019-04-14T18:30:25.680Z,5.63
2019-04-14T18:31:25.659Z,5.63
2019-04-14T18:32:25.641Z,5.63
2019-04-14T18:33:25.620Z,5.63
2019-04-14T18:34:25.617Z,5.63
2019-04-14T18:35:25.597Z,0.00
2019-04-14T18:36:25.559Z,0.00
2019-04-14T18:37:25.541Z,0.00
2019-04-14T18:38:25.518Z,0.00
2019-04-14T18:39:25.498Z,0.00
2019-04-14T18:40:25.550Z,0.00
2019-04-14T18:41:25.456Z,0.00
2019-04-14T18:42:25.436Z,0.00
2019-04-14T18:43:25.414Z,0.00
2019-04-14T18:44:25.395Z,0.00
2019-04-14T18:45:25.388Z,0.00
2019-04-14T18:46:25.355Z,0.00
2019-04-14T18:47:25.333Z,0.00
2019-04-14T18:48:25.314Z,0.00
2019-04-14T18:49:25.293Z,0.00
2019-04-14T18:50:25.308Z,0.00
2019-04-14T18:51:25.258Z,0.00
2019-04-14T18:52:25.229Z,0.00
2019-04-14T18:53:25.208Z,0.00
2019-04-14T18:54:25.188Z,0.00
2019-04-14T18:55:25.166Z,0.00
2019-04-14T18:56:25.163Z,0.00
2019-04-14T18:57:25.125Z,0.00
2019-04-14T18:58:25.111Z,0.00
2019-04-14T18:59:25.086Z,0.00
2019-04-14T19:00:25.062Z,0.00
2019-04-14T19:01:25.057Z,0.00
2019-04-14T19:02:25.021Z,0.00
2019-04-14T19:03:25.007Z,0.00
2019-04-14T19:04:24.980Z,0.00
2019-04-14T19:05:24.959Z,0.00
2019-04-14T19:06:24.949Z,0.00
2019-04-14T19:07:24.917Z,0.00
2019-04-14T19:08:24.893Z,0.00
2019-04-14T19:09:24.871Z,0.00
2019-04-14T19:10:24.851Z,0.00
2019-04-14T19:11:24.848Z,0.00
2019-04-14T19:12:24.810Z,0.00
2019-04-14T19:13:24.789Z,0.00
2019-04-14T19:14:24.768Z,0.00
2019-04-14T19:15:24.744Z,0.00
2019-04-14T19:16:24.724Z,0.00
2019-04-14T19:17:24.717Z,0.00
2019-04-14T19:18:25.807Z,0.00
2019-04-14T19:19:24.661Z,0.00
2019-04-14T19:20:24.641Z,0.00
2019-04-14T19:21:24.620Z,0.00
2019-04-14T19:22:24.611Z,0.00
2019-04-14T19:23:24.579Z,0.00
2019-04-14T19:24:24.554Z,0.00
2019-04-14T19:25:24.533Z,0.00
2019-04-14T19:26:24.512Z,0.00
2019-04-14T19:27:24.512Z,0.00
2019-04-14T19:28:24.472Z,0.00
2019-04-14T19:29:24.447Z,0.00
2019-04-14T19:30:24.426Z,0.00
2019-04-14T19:31:24.410Z,0.00
2019-04-14T19:32:24.382Z,0.00
2019-04-14T19:33:24.374Z,0.00
2019-04-14T19:34:24.341Z,0.00
2019-04-14T19:35:26.787Z,0.00
2019-04-14T19:36:24.297Z,0.00
2019-04-14T19:37:24.276Z,0.00
2019-04-14T19:38:24.268Z,0.00
2019-04-14T19:39:24.232Z,0.00
2019-04-14T19:40:24.210Z,0.00
2019-04-14T19:41:24.188Z,0.00
2019-04-14T19:42:24.168Z,0.00
2019-04-14T19:43:24.401Z,0.00
2019-04-14T19:44:24.124Z,0.00
2019-04-14T19:45:24.105Z,0.00
2019-04-14T19:46:24.081Z,0.00
2019-04-14T19:47:24.071Z,0.00
2019-04-14T19:48:24.038Z,0.00
2019-04-14T19:49:24.032Z,0.00
2019-04-14T19:50:23.999Z,0.00
2019-04-14T19:51:23.983Z,0.00
2019-04-14T19:52:23.950Z,0.00
2019-04-14T19:53:23.931Z,0.00
2019-04-14T19:54:23.920Z,0.00
2019-04-14T19:55:23.884Z,0.00
2019-04-14T19:56:23.865Z,0.00
2019-04-14T19:57:23.843Z,0.00
2019-04-14T19:58:23.822Z,0.00
2019-04-14T19:59:23.815Z,0.00
2019-04-14T20:00:23.777Z,0.00
2019-04-14T20:01:23.764Z,0.00
2019-04-14T20:02:23.734Z,0.00
2019-04-14T20:03:23.715Z,0.00
2019-04-14T20:04:23.688Z,0.00
2019-04-14T20:05:23.681Z,0.00
2019-04-14T20:06:23.645Z,0.00
2019-04-14T20:07:23.622Z,0.00
2019-04-14T20:08:23.603Z,0.00
2019-04-14T20:09:23.581Z,0.00
2019-04-14T20:10:23.572Z,0.00
2019-04-14T20:11:23.539Z,0.00
2019-04-14T20:12:23.513Z,0.00
2019-04-14T20:13:23.493Z,0.00
2019-04-14T20:14:23.471Z,0.00
2019-04-14T20:15:23.461Z,0.00
2019-04-14T20:16:23.431Z,0.00
2019-04-14T20:17:23.404Z,0.00
2019-04-14T20:18:23.381Z,0.00
2019-04-14T20:19:23.358Z,0.00
2019-04-14T20:20:23.357Z,0.00
2019-04-14T20:21:23.320Z,0.00
2019-04-14T20:22:23.294Z,0.00
2019-04-14T20:23:23.366Z,0.00
2019-04-14T20:24:23.252Z,0.00
2019-04-14T20:25:33.047Z,0.00
2019-04-14T20:26:23.209Z,0.00
2019-04-14T20:27:23.190Z,0.00
2019-04-14T20:28:23.159Z,0.00
2019-04-14T20:29:23.141Z,0.00
2019-04-14T20:30:23.129Z,0.00
2019-04-14T20:31:23.099Z,0.00
2019-04-14T20:32:23.071Z,0.00
2019-04-14T20:33:23.048Z,0.00
2019-04-14T20:34:23.039Z,0.00
2019-04-14T20:35:23.021Z,0.00
2019-04-14T20:37:58.411Z,0.00
2019-04-14T20:38:54.992Z,0.00
2019-04-14T20:39:54.967Z,0.00